Latest Weather Observations for Albion Park

IDN60801

Issued at 5:02 pm EDT Thursday 11 February 2016 (issued every 30 minutes, with the page automatically refreshed every 10 minutes)

About weather observations | Map of weather stations | Latest weather observations for NSW | Other Formats
Station Details ID: 068241 Name: WOLLONGONG AIRPORT Lat: -34.56 Lon: 150.79 Height: 8.0 m
Data from the previous 72 hours. | See also: Recent months at Albion Park
Date/Time
EDT
Temp
°C
App
Temp
°C
Dew
Point
Rel
Hum
%
Delta-T
°C
Wind Press
QNH
hPa
Press
MSL
hPa
Rain
since 9 am
mm
Dir
 
Spd
km/h
Gust
km/h
Spd
kts
Gust
kts
11/05:00pm 25.4 25.8 19.8 71 3.6 ENE 17 22 9 12 1014.4 1014.4 0.0
11/04:30pm 25.6 26.2 20.2 72 3.5 ENE 17 26 9 14 1014.1 1014.1 0.0
11/04:00pm 25.2 25.1 19.6 71 3.6 ENE 19 24 10 13 1014.2 1014.2 0.0
11/03:30pm 26.1 26.1 20.2 70 3.8 NE 20 26 11 14 1014.2 1014.2 0.0
11/03:00pm 26.1 25.3 19.2 65 4.4 NE 22 30 12 16 1014.3 1014.3 0.0
11/02:30pm 26.0 25.5 19.2 66 4.4 ENE 20 30 11 16 1014.6 1014.6 0.0
11/02:00pm 26.7 26.0 19.6 65 4.6 ENE 22 30 12 16 1014.8 1014.8 0.0
11/01:30pm 27.1 27.4 20.7 68 4.2 NE 20 30 11 16 1014.9 1014.9 0.0
11/01:00pm 26.9 26.6 20.3 67 4.3 ENE 22 28 12 15 1014.9 1014.9 0.0
11/12:30pm 26.5 26.1 19.4 65 4.6 NE 20 28 11 15 1015.1 1015.1 0.0
11/12:00pm 26.8 26.2 18.9 62 5.1 NE 20 28 11 15 1015.5 1015.5 0.0
11/11:30am 26.3 25.8 18.7 63 4.9 ENE 19 24 10 13 1015.6 1015.6 0.0
11/11:00am 26.3 26.8 19.2 65 4.6 NE 15 24 8 13 1015.7 1015.7 0.0
11/10:30am 25.7 26.4 18.9 66 4.3 ENE 13 19 7 10 1015.7 1015.7 0.0
11/10:00am 26.0 28.4 18.9 65 4.5 NW 4 11 2 6 1015.8 1015.8 0.0
11/09:30am 24.6 26.3 18.5 69 3.9 NNW 7 11 4 6 1015.8 1015.8 0.0
11/09:00am 23.6 25.6 19.1 76 2.9 W 7 13 4 7 1015.9 1015.9 0.0
11/08:30am 21.8 23.5 18.4 81 2.1 WSW 7 13 4 7 1015.8 1015.8 0.0
11/08:00am 20.1 21.1 18.6 91 0.9 W 11 13 6 7 1015.7 1015.7 0.0
11/07:49am 19.7 20.6 18.5 93 0.7 W 11 13 6 7 1015.5 1015.5 0.0
11/07:30am 19.0 20.4 18.7 98 0.2 W 9 11 5 6 1015.2 1015.2 0.0
11/07:00am 17.5 18.7 17.3 99 0.1 W 7 9 4 5 1014.8 1014.8 0.0
11/06:49am 16.9 19.2 16.7 99 0.1 CALM 0 7 0 4 1014.6 1014.6 0.0
11/06:30am 16.5 18.6 16.3 99 0.1 CALM 0 0 0 0 1014.2 1014.2 0.0
11/06:00am 16.7 17.6 16.5 99 0.1 W 7 9 4 5 1013.9 1013.9 0.0
11/05:30am 16.9 18.0 16.7 99 0.1 W 6 6 3 3 1013.7 1013.7 0.0
11/05:00am 17.0 17.9 16.7 98 0.2 W 7 9 4 5 1013.6 1013.6 0.0
11/04:30am 17.1 18.3 16.8 98 0.2 W 6 7 3 4 1013.6 1013.6 0.0
11/04:00am 17.5 19.2 17.2 98 0.2 W 4 6 2 3 1013.4 1013.4 0.0
11/03:30am 17.3 18.5 16.8 97 0.3 W 6 7 3 4 1013.3 1013.3 0.0
11/03:00am 17.8 20.3 17.2 96 0.4 CALM 0 0 0 0 1013.4 1013.4 0.0
11/02:30am 18.1 20.0 17.6 97 0.3 W 4 9 2 5 1013.6 1013.6 0.0
11/02:00am 18.8 19.7 18.5 98 0.2 W 11 11 6 6 1013.7 1013.7 0.0
11/01:30am 18.4 20.0 17.8 96 0.4 W 6 9 3 5 1013.9 1013.9 0.0
11/01:00am 18.8 20.3 18.0 95 0.5 W 7 7 4 4 1014.2 1014.2 0.0
11/12:30am 19.1 20.8 18.1 94 0.6 W 6 9 3 5 1014.4 1014.4 0.0
11/12:00am 19.8 22.5 18.6 93 0.7 WNW 2 7 1 4 1014.3 1014.3 0.0
 
Date/Time
EDT
Temp
°C
App
Temp
°C
Dew
Point
Rel
Hum
%
Delta-T
°C
Wind Press
QNH
hPa
Press
MSL
hPa
Rain
since 9 am
mm
Dir
 
Spd
km/h
Gust
km/h
Spd
kts
Gust
kts
10/11:30pm 20.3 22.4 19.3 94 0.6 NW 7 11 4 6 1014.2 1014.2 0.0
10/11:00pm 20.3 21.9 19.1 93 0.8 W 9 11 5 6 1014.2 1014.2 0.0
10/10:30pm 20.9 23.9 19.2 90 1.1 NW 2 9 1 5 1014.2 1014.2 0.0
10/10:00pm 21.4 23.0 19.1 87 1.5 WNW 9 11 5 6 1014.0 1014.0 0.0
10/09:30pm 23.4 25.3 19.8 80 2.3 N 9 15 5 8 1013.8 1013.8 0.0
10/09:00pm 23.7 24.9 19.8 79 2.5 NNE 13 22 7 12 1013.4 1013.4 0.0
10/08:30pm 23.9 24.3 19.8 78 2.6 NNE 17 28 9 15 1013.1 1013.1 0.0
10/08:00pm 24.3 24.9 20.2 78 2.7 NE 17 22 9 12 1013.0 1013.0 0.0
10/07:30pm 24.8 24.8 19.8 74 3.2 NE 19 30 10 16 1012.5 1012.5 0.0
10/07:00pm 25.3 25.1 19.7 71 3.6 NE 20 28 11 15 1012.1 1012.1 0.0
10/06:30pm 25.7 24.9 19.3 67 4.1 NE 22 33 12 18 1011.7 1011.7 0.0
10/06:00pm 25.9 24.6 19.1 66 4.4 NE 24 32 13 17 1011.5 1011.5 0.0
10/05:30pm 26.6 25.5 19.5 65 4.6 NE 24 32 13 17 1011.5 1011.5 0.0
10/05:00pm 26.5 24.9 18.4 61 5.2 NE 24 33 13 18 1011.5 1011.5 0.0
10/04:30pm 26.7 24.2 18.0 59 5.5 ENE 28 35 15 19 1011.6 1011.6 0.0
10/04:00pm 27.0 24.8 18.6 60 5.4 ENE 28 35 15 19 1011.8 1011.8 0.0
10/03:30pm 26.9 24.7 18.7 60 5.2 ENE 28 35 15 19 1012.0 1012.0 0.0
10/03:00pm 27.4 25.7 19.7 63 5.0 NE 28 39 15 21 1012.2 1012.2 0.0
10/02:30pm 27.0 25.0 19.9 65 4.6 NE 30 39 16 21 1012.5 1012.5 0.0
10/02:00pm 27.2 25.1 19.8 64 4.8 NE 30 37 16 20 1012.8 1012.8 0.0
10/01:30pm 27.4 25.6 18.7 59 5.6 NE 26 33 14 18 1013.1 1013.1 0.0
10/01:00pm 27.7 26.2 19.5 61 5.3 ENE 26 32 14 17 1013.2 1013.2 0.0
10/12:30pm 28.5 28.7 17.7 52 6.8 NNE 13 20 7 11 1013.6 1013.6 0.0
10/12:00pm 28.3 28.6 17.8 53 6.7 NNE 13 20 7 11 1014.2 1014.2 0.0
10/11:30am 27.3 26.2 16.3 51 6.8 N 17 28 9 15 1014.8 1014.8 0.0
10/11:00am 26.7 25.7 16.6 54 6.2 N 17 22 9 12 1015.2 1015.2 0.0
10/10:30am 26.2 25.1 16.4 54 6.0 N 17 26 9 14 1015.5 1015.5 0.0
10/10:00am 25.5 24.8 17.4 61 5.1 NNW 17 24 9 13 1015.8 1015.8 0.0
10/09:30am 24.5 23.5 18.0 67 4.1 N 20 26 11 14 1015.9 1015.9 0.0
10/09:00am 23.8 23.4 18.0 70 3.6 NNW 17 24 9 13 1016.1 1016.1 0.0
10/08:30am 21.7 22.9 18.3 81 2.1 NNW 9 13 5 7 1016.0 1016.0 0.0
10/08:00am 19.2 22.4 18.9 98 0.2 CALM 0 0 0 0 1016.1 1016.1 0.0
10/07:30am 17.4 19.5 17.2 99 0.1 WNW 2 7 1 4 1016.0 1016.0 0.0
10/07:00am 16.3 18.3 16.1 99 0.1 CALM 0 0 0 0 1015.9 1015.9 0.0
10/06:30am 15.2 16.8 14.9 98 0.2 CALM 0 0 0 0 1015.7 1015.7 0.0
10/06:00am 15.4 17.1 15.1 98 0.2 CALM 0 0 0 0 1015.5 1015.5 0.0
10/05:30am 15.3 16.5 15.0 98 0.2 WNW 2 7 1 4 1015.5 1015.5 0.0
10/05:00am 15.7 17.1 15.4 98 0.2 W 2 9 1 5 1015.6 1015.6 0.0
10/04:30am 15.9 17.7 15.6 98 0.2 CALM 0 0 0 0 1015.8 1015.8 0.0
10/04:00am 15.9 17.7 15.4 97 0.3 CALM 0 0 0 0 1015.8 1015.8 0.0
10/03:30am 16.3 18.2 15.8 97 0.3 CALM 0 0 0 0 1016.1 1016.1 0.0
10/03:00am 16.3 17.0 15.7 96 0.4 W 6 7 3 4 1016.4 1016.4 0.0
10/02:30am 16.7 18.7 16.1 96 0.4 CALM 0 0 0 0 1016.8 1016.8 0.0
10/02:00am 16.9 17.7 16.3 96 0.4 W 7 9 4 5 1017.1 1017.1 0.0
10/01:30am 17.0 17.9 16.2 95 0.5 W 6 7 3 4 1017.4 1017.4 0.0
10/01:00am 17.3 18.2 16.5 95 0.5 W 7 9 4 5 1017.8 1017.8 0.0
10/12:30am 17.6 18.2 16.8 95 0.5 W 9 11 5 6 1018.2 1018.2 0.0
10/12:00am 17.7 18.0 16.9 95 0.5 W 11 11 6 6 1018.6 1018.6 0.0
 
Date/Time
EDT
Temp
°C
App
Temp
°C
Dew
Point
Rel
Hum
%
Delta-T
°C
Wind Press
QNH
hPa
Press
MSL
hPa
Rain
since 9 am
mm
Dir
 
Spd
km/h
Gust
km/h
Spd
kts
Gust
kts
09/11:30pm 17.8 18.4 16.8 94 0.6 W 9 9 5 5 1019.0 1019.0 0.0
09/11:00pm 18.2 18.5 17.0 93 0.7 W 11 11 6 6 1019.3 1019.3 0.0
09/10:30pm 18.0 18.5 16.5 91 0.9 W 9 11 5 6 1019.5 1019.5 0.0
09/10:00pm 18.4 19.0 16.7 90 1.0 W 9 11 5 6 1019.5 1019.5 0.0
09/09:30pm 18.4 18.5 16.6 89 1.1 W 11 11 6 6 1019.5 1019.5 0.0
09/09:00pm 19.3 19.5 16.7 85 1.6 W 11 11 6 6 1019.4 1019.4 0.0
09/08:30pm 20.9 22.3 17.3 80 2.2 SE 6 7 3 4 1019.2 1019.2 0.0
09/08:00pm 21.8 23.0 17.4 76 2.7 SE 7 9 4 5 1019.1 1019.1 0.0
09/07:30pm 22.5 23.5 16.8 70 3.5 SE 7 11 4 6 1019.1 1019.1 0.0
09/07:00pm 23.0 23.0 16.3 66 4.1 E 11 15 6 8 1018.8 1018.8 0.0
09/06:30pm 23.4 23.3 16.0 63 4.5 ESE 11 15 6 8 1018.6 1018.6 0.0
09/06:00pm 23.9 22.4 15.4 59 5.1 E 17 22 9 12 1018.6 1018.6 0.0
09/05:30pm 24.7 23.7 16.7 61 4.9 SE 17 24 9 13 1018.7 1018.7 0.0
09/05:00pm 24.8 23.5 15.7 57 5.5 ESE 17 26 9 14 1018.7 1018.7 0.0
09/04:30pm 24.8 23.3 16.2 58 5.3 ESE 19 30 10 16 1018.9 1018.9 0.0
09/04:00pm 25.0 23.8 17.0 61 4.9 ESE 19 28 10 15 1019.2 1019.2 0.0
09/03:30pm 25.4 24.9 17.8 62 4.8 SE 17 26 9 14 1019.5 1019.5 0.0
09/03:00pm 25.5 24.3 17.4 61 5.0 SE 20 32 11 17 1019.7 1019.7 0.0
09/02:30pm 25.1 23.8 17.3 62 4.9 SE 20 32 11 17 1019.9 1019.9 0.0
09/02:00pm 25.1 23.8 17.3 62 4.8 SE 20 30 11 16 1020.3 1020.3 0.0
09/01:30pm 25.0 23.0 17.5 63 4.7 ESE 24 35 13 19 1020.5 1020.5 0.0
09/01:00pm 25.3 24.3 18.0 64 4.6 SE 20 32 11 17 1020.5 1020.5 0.0
09/12:30pm 26.0 25.2 17.9 61 5.1 SSE 19 30 10 16 1020.7 1020.7 0.0
09/12:00pm 25.3 24.1 17.5 62 4.9 SSE 20 28 11 15 1021.0 1021.0 0.0
09/11:30am 25.0 23.7 17.2 62 4.8 SSE 20 28 11 15 1021.2 1021.2 0.0
09/11:00am 24.6 22.7 16.6 61 4.9 SSE 22 32 12 17 1021.5 1021.5 0.0
09/10:30am 24.6 22.7 17.6 65 4.4 S 24 33 13 18 1021.6 1021.6 0.0
09/10:00am 23.9 21.8 17.2 66 4.1 S 24 37 13 20 1021.6 1021.6 0.0
09/09:30am 23.6 22.2 18.0 71 3.5 SSE 22 30 12 16 1021.5 1021.5 0.0
09/09:00am 22.2 22.8 18.6 80 2.3 S 13 19 7 10 1021.5 1021.5 0.0
09/08:30am 22.3 21.6 18.3 78 2.5 SSE 19 26 10 14 1021.1 1021.1 0.0
09/08:00am 21.7 21.6 18.7 83 1.9 S 17 22 9 12 1020.8 1020.8 0.0
09/07:30am 21.0 22.1 18.8 87 1.4 SSE 11 19 6 10 1020.5 1020.5 0.0
09/07:00am 20.5 22.2 19.3 93 0.8 S 9 13 5 7 1020.2 1020.2 0.0
09/06:30am 20.3 21.5 19.0 92 0.8 S 11 13 6 7 1019.9 1019.9 0.0
09/06:00am 19.7 21.2 19.0 96 0.4 S 9 13 5 7 1019.6 1019.6 0.0
09/05:30am 18.3 19.7 17.3 94 0.6 W 6 7 3 4 1019.2 1019.2 0.0
09/05:00am 18.7 21.5 18.0 96 0.4 CALM 0 0 0 0 1019.1 1019.1 0.0
09/04:30am 18.4 19.7 17.6 95 0.5 W 7 9 4 5 1018.9 1018.9 0.0
09/04:00am 18.6 20.1 17.6 94 0.6 W 6 7 3 4 1018.9 1018.9 0.0
09/03:30am 18.8 19.7 17.5 92 0.8 W 9 11 5 6 1019.0 1019.0 0.0
09/03:00am 19.5 21.3 18.2 92 0.8 W 6 9 3 5 1019.1 1019.1 0.0
09/02:30am 19.2 20.0 18.2 94 0.6 W 11 11 6 6 1019.2 1019.2 0.0
09/02:00am 19.4 21.0 18.2 93 0.7 WNW 7 9 4 5 1019.4 1019.4 0.0
09/01:30am 19.4 21.2 18.4 94 0.6 W 6 9 3 5 1019.8 1019.8 0.0
09/01:00am 19.0 20.2 18.2 95 0.5 W 9 11 5 6 1019.9 1019.9 0.0
09/12:30am 18.5 19.1 17.7 95 0.5 WSW 11 13 6 7 1020.0 1020.0 0.0
09/12:00am 18.9 20.3 17.9 94 0.6 SW 7 9 4 5 1020.1 1020.1 0.0
 
Date/Time
EDT
Temp
°C
App
Temp
°C
Dew
Point
Rel
Hum
%
Delta-T
°C
Wind Press
QNH
hPa
Press
MSL
hPa
Rain
since 9 am
mm
Dir
 
Spd
km/h
Gust
km/h
Spd
kts
Gust
kts
08/11:30pm 19.1 20.6 18.1 94 0.6 SW 7 11 4 6 1020.0 1020.0 0.0
08/11:00pm 20.3 22.1 18.8 91 0.9 S 7 9 4 5 1020.0 1020.0 0.0
08/10:30pm 20.7 22.4 19.4 92 0.8 S 9 11 5 6 1020.1 1020.1 0.0
08/10:00pm 21.0 22.7 19.3 90 1.1 S 9 9 5 5 1020.1 1020.1 0.0
08/09:30pm 21.3 23.0 19.4 89 1.2 S 9 11 5 6 1019.9 1019.9 0.0
08/09:00pm 21.7 23.5 19.6 88 1.3 S 9 11 5 6 1019.5 1019.5 0.0
08/08:30pm 22.1 23.9 19.6 86 1.6 S 9 11 5 6 1019.0 1019.0 0.0
08/08:02pm 22.9 25.1 19.7 82 2.1 SE 7 9 4 5 1018.7 1018.7 0.0
08/08:00pm 22.9 25.1 19.5 81 2.2 SE 7 9 4 5 1018.6 1018.6 0.0
08/07:40pm 23.7 25.9 19.6 78 2.6 ESE 7 9 4 5 1018.4 1018.4 0.0
08/07:30pm 23.8 25.5 19.3 76 2.9 E 9 13 5 7 1018.3 1018.3 0.0
08/07:00pm 24.6 25.9 19.4 73 3.3 E 11 17 6 9 1018.0 1018.0 0.0
08/06:30pm 25.2 26.0 19.1 69 3.9 ENE 13 20 7 11 1017.7 1017.7 0.0
08/06:00pm 25.6 26.3 18.8 66 4.3 ENE 13 19 7 10 1017.6 1017.6 0.0
08/05:30pm 26.0 26.3 18.7 64 4.7 ENE 15 20 8 11 1017.6 1017.6 0.0

Other Formats:

Comma delimited format used in spreadsheet applications
http://www.bom.gov.au/fwo/IDN60801/IDN60801.95748.axf

JavaScript Object Notation format (JSON) in row-major order
http://www.bom.gov.au/fwo/IDN60801/IDN60801.95748.json